Terminal Aerodrome Forecast
Issued by NWS

Home | Current Version | Previous Version | Text Only | Print | Product List | Glossary On
Versions: 1 2 3 4 5 6 7 8 9 10 11 12 13 14 15 16 17 18 19 20 21
000
FTUS44 KTSA 261123
TAFBVO
TAF
KBVO 261123Z 2612/2712 17005KT P6SM OVC025 WS020/18040KT
     FM261500 17011G20KT P6SM BKN025
     FM261800 17013G20KT P6SM VCTS BKN035CB
     FM270000 17010G17KT P6SM VCTS BKN050CB OVC100
     FM270900 16009KT P6SM BKN025=

USA.gov is the U.S. government's official web portal to all federal, state and local government web resources and services.